createdAt,value
2018-03-28T00:00:57.711Z,8.73
2018-03-28T00:01:57.541Z,8.73
2018-03-28T00:02:57.616Z,8.71
2018-03-28T00:03:57.492Z,8.73
2018-03-28T00:04:57.532Z,8.55
2018-03-28T00:05:57.435Z,8.71
2018-03-28T00:06:57.547Z,8.73
2018-03-28T00:07:57.385Z,8.69
2018-03-28T00:08:57.456Z,8.69
2018-03-28T00:09:57.333Z,8.72
2018-03-28T00:10:57.370Z,8.66
2018-03-28T00:11:57.281Z,8.63
2018-03-28T00:12:57.384Z,8.73
2018-03-28T00:13:57.226Z,8.73
2018-03-28T00:14:57.294Z,8.72
2018-03-28T00:15:57.176Z,8.71
2018-03-28T00:16:57.308Z,8.71
2018-03-28T00:17:57.125Z,8.72
2018-03-28T00:18:57.221Z,8.69
2018-03-28T00:19:57.073Z,8.75
2018-03-28T00:20:57.132Z,8.69
2018-03-28T00:21:57.016Z,8.69
2018-03-28T00:22:57.147Z,8.58
2018-03-28T00:23:56.966Z,8.69
2018-03-28T00:24:57.057Z,8.65
2018-03-28T00:25:56.921Z,8.69
2018-03-28T00:26:56.970Z,8.72
2018-03-28T00:27:56.856Z,8.69
2018-03-28T00:28:56.983Z,8.73
2018-03-28T00:29:56.809Z,8.73
2018-03-28T00:30:56.898Z,8.65
2018-03-28T00:31:56.759Z,8.69
2018-03-28T00:32:56.913Z,8.73
2018-03-28T00:33:56.707Z,8.68
2018-03-28T00:34:56.823Z,8.69
2018-03-28T00:35:56.655Z,8.68
2018-03-28T00:36:56.733Z,8.69
2018-03-28T00:37:56.603Z,8.69
2018-03-28T00:38:56.746Z,8.73
2018-03-28T00:39:56.550Z,8.71
2018-03-28T00:40:56.659Z,8.69
2018-03-28T00:41:56.503Z,8.72
2018-03-28T00:42:56.569Z,8.69
2018-03-28T00:43:56.446Z,8.71
2018-03-28T00:44:56.588Z,8.69
2018-03-28T00:45:56.395Z,8.73
2018-03-28T00:46:56.495Z,8.69
2018-03-28T00:47:56.343Z,8.68
2018-03-28T00:48:56.406Z,8.68
2018-03-28T00:49:56.292Z,8.68
2018-03-28T00:50:56.420Z,8.65
2018-03-28T00:51:56.243Z,8.72
2018-03-28T00:52:56.332Z,8.65
2018-03-28T00:53:56.186Z,8.73
2018-03-28T00:54:56.347Z,8.71
2018-03-28T00:55:56.139Z,8.69
2018-03-28T00:56:56.256Z,8.71
2018-03-28T00:57:56.085Z,8.69
2018-03-28T00:58:56.164Z,8.66
2018-03-28T00:59:56.037Z,8.71
2018-03-28T01:00:56.184Z,8.73
2018-03-28T01:01:55.987Z,8.72
2018-03-28T01:02:56.098Z,8.68
2018-03-28T01:03:55.932Z,8.66
2018-03-28T01:04:56.006Z,8.68
2018-03-28T01:05:55.877Z,8.68
2018-03-28T01:06:56.019Z,8.71
2018-03-28T01:07:55.829Z,8.62
2018-03-28T01:08:55.936Z,8.63
2018-03-28T01:09:55.778Z,8.72
2018-03-28T01:10:55.949Z,8.71
2018-03-28T01:12:10.254Z,8.69
2018-03-28T01:12:55.859Z,8.72
2018-03-28T01:13:55.676Z,8.68
2018-03-28T01:14:55.768Z,8.68
2018-03-28T01:15:55.629Z,8.68
2018-03-28T01:16:55.787Z,8.75
2018-03-28T01:17:55.569Z,8.72
2018-03-28T01:18:55.696Z,8.72
2018-03-28T01:19:55.517Z,8.68
2018-03-28T01:20:55.607Z,8.68
2018-03-28T01:21:55.467Z,8.72
2018-03-28T01:22:55.623Z,8.72
2018-03-28T01:23:55.417Z,8.68
2018-03-28T01:24:55.533Z,8.71
2018-03-28T01:25:55.363Z,8.72
2018-03-28T01:26:55.547Z,8.72
2018-03-28T01:27:55.312Z,8.63
2018-03-28T01:28:55.457Z,8.66
2018-03-28T01:29:55.259Z,8.69
2018-03-28T01:30:55.372Z,8.57
2018-03-28T01:31:55.206Z,8.73
2018-03-28T01:32:55.282Z,8.63
2018-03-28T01:33:55.155Z,8.60
2018-03-28T01:34:55.192Z,8.62
2018-03-28T01:35:55.107Z,8.65
2018-03-28T01:36:55.105Z,8.69
2018-03-28T01:37:55.052Z,8.69
2018-03-28T01:38:55.135Z,8.75
2018-03-28T01:39:55.003Z,8.71
2018-03-28T01:40:55.029Z,8.69
2018-03-28T01:41:54.948Z,8.65
2018-03-28T01:42:55.044Z,8.71
2018-03-28T01:43:54.901Z,8.71
2018-03-28T01:44:54.954Z,8.60
2018-03-28T01:45:54.846Z,8.69
2018-03-28T01:46:54.868Z,8.66
2018-03-28T01:47:54.799Z,8.73
2018-03-28T01:48:54.880Z,8.66
2018-03-28T01:49:54.746Z,8.71
2018-03-28T01:50:54.801Z,8.58
2018-03-28T01:51:54.691Z,8.63
2018-03-28T01:52:54.706Z,8.69
2018-03-28T01:53:54.644Z,8.65
2018-03-28T01:54:54.723Z,8.68
2018-03-28T01:55:54.588Z,8.73
2018-03-28T01:56:54.632Z,8.68
2018-03-28T01:57:54.539Z,8.72
2018-03-28T01:58:54.648Z,8.73
2018-03-28T01:59:54.484Z,8.75
2018-03-28T02:00:54.556Z,8.72
2018-03-28T02:01:54.430Z,8.71
2018-03-28T02:02:54.468Z,8.71
2018-03-28T02:03:54.385Z,8.69
2018-03-28T02:04:54.482Z,8.69
2018-03-28T02:05:54.328Z,8.69
2018-03-28T02:06:54.418Z,8.58
2018-03-28T02:07:54.280Z,8.71
2018-03-28T02:08:54.304Z,8.62
2018-03-28T02:09:54.226Z,8.57
2018-03-28T02:10:54.316Z,8.60
2018-03-28T02:11:54.174Z,8.62
2018-03-28T02:12:54.229Z,8.62
2018-03-28T02:13:54.124Z,8.57
2018-03-28T02:14:54.247Z,8.60
2018-03-28T02:15:54.071Z,8.55
2018-03-28T02:16:54.153Z,8.62
2018-03-28T02:17:54.017Z,8.63
2018-03-28T02:18:54.063Z,8.65
2018-03-28T02:19:53.973Z,8.60
2018-03-28T02:20:54.082Z,8.57
2018-03-28T02:21:53.925Z,8.55
2018-03-28T02:22:53.992Z,8.54
2018-03-28T02:23:53.866Z,8.57
2018-03-28T02:24:53.902Z,8.65
2018-03-28T02:25:53.818Z,8.62
2018-03-28T02:26:53.923Z,8.57
2018-03-28T02:27:53.768Z,8.58
2018-03-28T02:28:53.832Z,8.57
2018-03-28T02:29:53.712Z,8.54
2018-03-28T02:30:53.843Z,8.60
2018-03-28T02:31:53.661Z,8.57
2018-03-28T02:32:53.756Z,8.53
2018-03-28T02:33:53.609Z,8.50
2018-03-28T02:34:53.669Z,8.50
2018-03-28T02:35:53.557Z,8.51
2018-03-28T02:36:53.681Z,8.48
2018-03-28T02:37:53.503Z,8.53
2018-03-28T02:38:53.594Z,8.48
2018-03-28T02:39:53.451Z,8.47
2018-03-28T02:40:53.504Z,8.55
2018-03-28T02:41:53.401Z,8.51
2018-03-28T02:42:53.519Z,8.51
2018-03-28T02:43:53.347Z,8.55
2018-03-28T02:44:53.433Z,8.53
2018-03-28T02:45:53.295Z,8.45
2018-03-28T02:46:53.446Z,8.51
2018-03-28T02:47:53.245Z,8.39
2018-03-28T02:48:53.356Z,8.44
2018-03-28T02:49:53.194Z,8.44
2018-03-28T02:50:53.269Z,8.39
2018-03-28T02:51:53.141Z,8.39
2018-03-28T02:52:53.283Z,8.40
2018-03-28T02:53:53.090Z,8.48
2018-03-28T02:54:53.194Z,8.47
2018-03-28T02:55:53.037Z,8.44
2018-03-28T02:56:53.108Z,8.47
2018-03-28T02:57:52.990Z,8.37
2018-03-28T02:58:53.121Z,8.45
2018-03-28T02:59:52.932Z,8.40
2018-03-28T03:00:53.039Z,8.44
2018-03-28T03:01:52.889Z,8.44
2018-03-28T03:02:53.044Z,8.37
2018-03-28T03:03:52.829Z,8.37
2018-03-28T03:04:52.964Z,8.39
2018-03-28T03:05:52.777Z,8.39
2018-03-28T03:06:52.867Z,8.37
2018-03-28T03:07:52.725Z,8.37
2018-03-28T03:08:52.884Z,8.40
2018-03-28T03:09:52.672Z,8.37
2018-03-28T03:10:52.793Z,8.35
2018-03-28T03:11:52.623Z,8.36
2018-03-28T03:12:52.704Z,8.36
2018-03-28T03:13:52.564Z,8.36
2018-03-28T03:14:52.719Z,8.37
2018-03-28T03:15:52.529Z,8.36
2018-03-28T03:16:52.630Z,8.33
2018-03-28T03:17:52.464Z,8.37
2018-03-28T03:18:52.541Z,8.36
2018-03-28T03:19:52.411Z,8.36
2018-03-28T03:20:52.555Z,8.36
2018-03-28T03:21:52.365Z,8.36
2018-03-28T03:22:52.466Z,8.36
2018-03-28T03:23:52.308Z,8.47
2018-03-28T03:24:52.480Z,8.40
2018-03-28T03:25:52.256Z,8.42
2018-03-28T03:26:52.394Z,8.35
2018-03-28T03:27:52.195Z,8.44
2018-03-28T03:28:52.309Z,8.35
2018-03-28T03:29:52.152Z,8.32
2018-03-28T03:30:52.322Z,8.30
2018-03-28T03:31:52.100Z,8.35
2018-03-28T03:32:52.234Z,8.26
2018-03-28T03:33:52.048Z,8.29
2018-03-28T03:34:52.143Z,8.29
2018-03-28T03:35:51.999Z,8.26
2018-03-28T03:36:52.215Z,8.32
2018-03-28T03:37:51.940Z,8.28
2018-03-28T03:38:52.075Z,8.29
2018-03-28T03:39:51.902Z,8.29
2018-03-28T03:40:52.083Z,8.29
2018-03-28T03:41:51.838Z,8.22
2018-03-28T03:42:51.998Z,8.25
2018-03-28T03:43:51.787Z,8.32
2018-03-28T03:44:51.906Z,8.28
2018-03-28T03:45:51.736Z,8.22
2018-03-28T03:46:52.842Z,8.25
2018-03-28T03:47:51.689Z,8.25
2018-03-28T03:48:51.730Z,8.29
2018-03-28T03:49:51.630Z,8.28
2018-03-28T03:50:51.642Z,8.30
2018-03-28T03:51:51.591Z,8.26
2018-03-28T03:52:51.655Z,8.26
2018-03-28T03:53:51.526Z,8.30
2018-03-28T03:54:51.577Z,8.28
2018-03-28T03:55:51.474Z,8.21
2018-03-28T03:56:51.477Z,8.29
2018-03-28T03:57:51.423Z,8.33
2018-03-28T03:58:51.541Z,8.29
2018-03-28T03:59:51.370Z,8.33
2018-03-28T04:00:51.407Z,8.28
2018-03-28T04:01:51.318Z,8.26
2018-03-28T04:02:51.421Z,8.26
2018-03-28T04:03:51.260Z,8.28
2018-03-28T04:04:51.327Z,8.30
2018-03-28T04:05:51.212Z,8.28
2018-03-28T04:06:51.238Z,8.28
2018-03-28T04:07:51.160Z,8.29
2018-03-28T04:08:51.252Z,8.30
2018-03-28T04:09:51.106Z,8.29
2018-03-28T04:10:51.164Z,8.28
2018-03-28T04:11:51.060Z,8.20
2018-03-28T04:12:51.077Z,8.28
2018-03-28T04:13:51.003Z,8.29
2018-03-28T04:14:51.087Z,8.29
2018-03-28T04:15:50.952Z,8.28
2018-03-28T04:16:51.002Z,8.26
2018-03-28T04:17:50.906Z,8.28
2018-03-28T04:18:51.017Z,8.22
2018-03-28T04:19:50.844Z,8.32
2018-03-28T04:20:50.929Z,8.28
2018-03-28T04:21:50.793Z,8.26
2018-03-28T04:22:50.839Z,8.29
2018-03-28T04:23:50.742Z,8.28
2018-03-28T04:24:50.853Z,8.30
2018-03-28T04:25:50.696Z,8.29
2018-03-28T04:26:50.764Z,8.33
2018-03-28T04:27:50.636Z,8.26
2018-03-28T04:28:50.674Z,8.32
2018-03-28T04:29:50.582Z,8.30
2018-03-28T04:30:50.695Z,8.33
2018-03-28T04:31:50.532Z,8.26
2018-03-28T04:32:50.602Z,8.22
2018-03-28T04:33:50.478Z,8.26
2018-03-28T04:34:50.513Z,8.35
2018-03-28T04:35:50.431Z,8.37
2018-03-28T04:36:50.527Z,8.32
2018-03-28T04:37:50.373Z,8.29
2018-03-28T04:38:50.440Z,8.28
2018-03-28T04:39:50.321Z,8.32
2018-03-28T04:40:50.452Z,8.29
2018-03-28T04:41:50.267Z,8.37
2018-03-28T04:42:50.364Z,8.29
2018-03-28T04:43:50.276Z,8.30
2018-03-28T04:44:50.302Z,8.33
2018-03-28T04:45:50.165Z,8.35
2018-03-28T04:46:50.291Z,8.33
2018-03-28T04:47:50.112Z,8.36
2018-03-28T04:48:50.203Z,8.29
2018-03-28T04:49:50.064Z,8.26
2018-03-28T04:50:50.113Z,8.42
2018-03-28T04:51:49.996Z,8.30
2018-03-28T04:52:50.131Z,8.32
2018-03-28T04:53:49.953Z,8.29
2018-03-28T04:54:50.043Z,8.36
2018-03-28T04:55:49.947Z,8.32
2018-03-28T04:56:49.951Z,8.33
2018-03-28T04:57:49.855Z,8.39
2018-03-28T04:58:49.969Z,8.35
2018-03-28T04:59:49.795Z,8.35
2018-03-28T05:00:49.875Z,8.35
2018-03-28T05:01:49.746Z,8.35
2018-03-28T05:02:49.889Z,8.36
2018-03-28T05:03:49.695Z,8.40
2018-03-28T05:04:49.800Z,8.36
2018-03-28T05:05:49.648Z,8.35
2018-03-28T05:06:49.713Z,8.36
2018-03-28T05:07:49.587Z,8.35
2018-03-28T05:08:49.728Z,8.39
2018-03-28T05:09:49.537Z,8.36
2018-03-28T05:10:49.641Z,8.33
2018-03-28T05:11:49.486Z,8.35
2018-03-28T05:12:49.550Z,8.33
2018-03-28T05:13:49.431Z,8.40
2018-03-28T05:14:49.564Z,8.47
2018-03-28T05:15:49.403Z,8.36
2018-03-28T05:16:49.476Z,8.45
2018-03-28T05:17:49.364Z,8.42
2018-03-28T05:18:49.391Z,8.47
2018-03-28T05:19:49.275Z,8.40
2018-03-28T05:20:49.404Z,8.47
2018-03-28T05:21:49.221Z,8.42
2018-03-28T05:22:49.313Z,8.42
2018-03-28T05:23:49.169Z,8.37
2018-03-28T05:24:49.327Z,8.42
2018-03-28T05:25:49.114Z,8.47
2018-03-28T05:26:49.240Z,8.40
2018-03-28T05:27:49.066Z,8.40
2018-03-28T05:28:49.151Z,8.40
2018-03-28T05:29:49.013Z,8.47
2018-03-28T05:30:49.166Z,8.48
2018-03-28T05:31:48.971Z,8.39
2018-03-28T05:32:49.077Z,8.45
2018-03-28T05:33:48.908Z,8.42
2018-03-28T05:34:48.982Z,8.42
2018-03-28T05:35:48.898Z,8.47
2018-03-28T05:36:49.015Z,8.51
2018-03-28T05:37:48.804Z,8.45
2018-03-28T05:38:48.916Z,8.48
2018-03-28T05:39:48.752Z,8.50
2018-03-28T05:40:48.936Z,8.51
2018-03-28T05:41:48.686Z,8.50
2018-03-28T05:42:48.869Z,8.54
2018-03-28T05:43:48.664Z,8.47
2018-03-28T05:44:48.752Z,8.51
2018-03-28T05:45:48.590Z,8.50
2018-03-28T05:46:48.769Z,8.50
2018-03-28T05:47:48.540Z,8.53
2018-03-28T05:48:48.678Z,8.55
2018-03-28T05:49:48.487Z,8.55
2018-03-28T05:50:48.588Z,8.51
2018-03-28T05:51:48.436Z,8.47
2018-03-28T05:52:48.602Z,8.54
2018-03-28T05:53:48.382Z,8.51
2018-03-28T05:54:48.509Z,8.51
2018-03-28T05:55:48.351Z,8.55
2018-03-28T05:56:48.423Z,8.54
2018-03-28T05:57:48.282Z,8.53
2018-03-28T05:58:48.438Z,8.54
2018-03-28T05:59:48.231Z,8.55
2018-03-28T06:00:48.356Z,8.63
2018-03-28T06:01:48.174Z,8.60
2018-03-28T06:02:48.363Z,8.63
2018-03-28T06:03:48.126Z,8.54
2018-03-28T06:04:48.286Z,8.62
2018-03-28T06:05:48.070Z,8.62
2018-03-28T06:06:48.187Z,8.62
2018-03-28T06:07:48.016Z,8.60
2018-03-28T06:08:48.098Z,8.62
2018-03-28T06:09:47.966Z,8.58
2018-03-28T06:10:48.010Z,8.73
2018-03-28T06:11:47.916Z,8.71
2018-03-28T06:12:47.921Z,8.68
2018-03-28T06:13:47.862Z,8.73
2018-03-28T06:14:47.936Z,8.75
2018-03-28T06:15:47.810Z,8.76
2018-03-28T06:16:47.848Z,8.75
2018-03-28T06:17:47.758Z,8.79
2018-03-28T06:18:47.867Z,8.71
2018-03-28T06:19:47.713Z,8.73
2018-03-28T06:20:47.776Z,8.69
2018-03-28T06:21:47.664Z,8.81
2018-03-28T06:22:47.690Z,8.79
2018-03-28T06:23:47.606Z,8.78
2018-03-28T06:24:47.722Z,8.76
2018-03-28T06:25:47.553Z,8.87
2018-03-28T06:26:47.618Z,8.87
2018-03-28T06:27:47.501Z,8.86
2018-03-28T06:28:47.521Z,8.86
2018-03-28T06:29:47.449Z,8.86
2018-03-28T06:30:47.535Z,8.86
2018-03-28T06:31:47.390Z,8.90
2018-03-28T06:32:47.451Z,8.90
2018-03-28T06:33:47.360Z,8.90
2018-03-28T06:34:48.385Z,8.91
2018-03-28T06:35:47.296Z,8.88
2018-03-28T06:36:47.373Z,8.91
2018-03-28T06:37:47.243Z,8.97
2018-03-28T06:38:47.279Z,8.96
2018-03-28T06:39:47.191Z,8.96
2018-03-28T06:40:47.296Z,8.97
2018-03-28T06:41:47.143Z,9.06
2018-03-28T06:42:47.210Z,9.12
2018-03-28T06:43:47.088Z,9.06
2018-03-28T06:44:47.121Z,9.10
2018-03-28T06:45:47.037Z,9.21
2018-03-28T06:46:47.139Z,9.18
2018-03-28T06:47:46.994Z,9.10
2018-03-28T06:48:47.046Z,9.24
2018-03-28T06:49:46.935Z,9.28
2018-03-28T06:50:47.061Z,9.28
2018-03-28T06:51:46.887Z,9.27
2018-03-28T06:52:46.989Z,9.30
2018-03-28T06:53:46.837Z,9.31
2018-03-28T06:54:46.887Z,9.24
2018-03-28T06:55:46.784Z,9.15
2018-03-28T06:56:46.904Z,9.30
2018-03-28T06:57:46.725Z,9.28
2018-03-28T06:58:46.809Z,9.27
2018-03-28T06:59:46.690Z,9.28
2018-03-28T07:00:46.721Z,9.39
